Time;durP1;ratioP1;P1;durP2;ratioP2;P2;SDS_P1;SDS_P2;PMS_P1;PMS_P2;Temp;Humidity;BMP_temperature;BMP_pressure;BME280_temperature;BME280_humidity;BME280_pressure;Samples;Min_cycle;Max_cycle;Signal;HPM_P1;HPM_P2
2024/01/30 00:01:56;;;;;;;4.97;3.83;;;;;;;15.63;48.77;102673.47;5040739;28;20432;-40
2024/01/30 00:04:23;;;;;;;5.38;3.97;;;;;;;15.62;48.83;102669.06;5039612;28;20049;-40
2024/01/30 00:06:52;;;;;;;6.13;4.45;;;;;;;15.61;48.36;102667.38;5035346;28;20075;-42
2024/01/30 00:09:19;;;;;;;6.35;4.18;;;;;;;15.62;48.22;102668.22;5041965;28;20132;-39
2024/01/30 00:11:46;;;;;;;4.80;4.10;;;;;;;15.61;48.90;102661.16;5039022;28;20045;-41
2024/01/30 00:14:13;;;;;;;6.60;4.60;;;;;;;15.60;48.18;102657.63;5040901;28;20061;-41
2024/01/30 00:16:40;;;;;;;6.45;4.35;;;;;;;15.60;48.90;102662.09;5043497;28;20050;-41
2024/01/30 00:19:08;;;;;;;5.80;4.30;;;;;;;15.59;49.25;102661.22;5028722;28;20044;-40
2024/01/30 00:21:35;;;;;;;5.30;4.30;;;;;;;15.59;48.16;102657.72;5042937;28;20102;-40
2024/01/30 00:24:01;;;;;;;5.03;4.18;;;;;;;15.59;47.94;102658.56;5042169;28;20336;-40
2024/01/30 00:26:28;;;;;;;4.93;3.60;;;;;;;15.59;49.02;102660.38;5043345;28;20088;-45
2024/01/30 00:28:54;;;;;;;4.03;3.42;;;;;;;15.60;48.32;102654.97;5041043;28;20045;-41
2024/01/30 00:31:21;;;;;;;4.88;4.05;;;;;;;15.64;48.20;102653.81;5043398;28;20080;-41
2024/01/30 00:33:48;;;;;;;4.95;3.78;;;;;;;15.72;47.92;102662.25;5025689;28;20057;-41
2024/01/30 00:36:14;;;;;;;4.95;3.83;;;;;;;15.81;48.90;102662.66;5039401;28;20053;-42
2024/01/30 00:38:41;;;;;;;4.80;3.65;;;;;;;15.88;48.55;102662.19;5039873;28;20333;-40
2024/01/30 00:41:09;;;;;;;4.28;3.38;;;;;;;15.95;48.17;102665.31;5041185;28;20103;-41
2024/01/30 00:43:36;;;;;;;5.53;3.88;;;;;;;16.02;47.50;102655.97;5039177;28;20052;-41
2024/01/30 00:46:03;;;;;;;4.20;3.78;;;;;;;16.06;48.34;102654.81;5026163;28;20356;-41
2024/01/30 00:48:30;;;;;;;5.15;4.00;;;;;;;16.10;47.49;102656.34;5037714;28;20056;-39
2024/01/30 00:50:56;;;;;;;5.15;3.70;;;;;;;16.14;47.50;102654.31;5042652;28;20053;-41
2024/01/30 00:53:23;;;;;;;4.88;3.95;;;;;;;16.15;47.85;102664.91;5041749;28;20056;-41
2024/01/30 00:55:49;;;;;;;7.75;4.75;;;;;;;16.17;47.91;102659.50;5040653;28;20056;-41
2024/01/30 00:58:16;;;;;;;6.40;3.58;;;;;;;16.18;48.13;102651.34;5043216;28;20049;-41
2024/01/30 01:00:43;;;;;;;4.70;3.80;;;;;;;16.21;47.81;102645.81;5039429;28;20053;-41
2024/01/30 01:03:10;;;;;;;5.22;3.78;;;;;;;16.21;48.18;102636.94;5038585;28;20225;-40
2024/01/30 01:05:36;;;;;;;5.35;3.90;;;;;;;16.21;47.13;102623.56;5037168;28;20045;-40
2024/01/30 01:08:03;;;;;;;5.45;3.97;;;;;;;16.22;47.95;102631.47;5035995;28;20077;-40
2024/01/30 01:10:30;;;;;;;5.47;3.90;;;;;;;16.23;47.76;102635.00;5040216;28;20057;-41
2024/01/30 01:12:57;;;;;;;5.78;4.40;;;;;;;16.22;47.14;102644.00;5038207;28;20390;-41
2024/01/30 01:15:24;;;;;;;6.22;4.05;;;;;;;16.22;46.98;102642.19;5038950;28;20046;-41
2024/01/30 01:17:55;;;;;;;5.47;3.67;;;;;;;16.23;47.07;102637.69;5040971;28;20053;-40
2024/01/30 01:20:22;;;;;;;6.88;4.82;;;;;;;16.23;47.57;102635.00;5038569;28;20319;-40
2024/01/30 01:22:48;;;;;;;7.32;3.95;;;;;;;16.23;47.82;102643.03;5039497;28;20111;-41
2024/01/30 01:25:15;;;;;;;5.40;3.80;;;;;;;16.22;47.51;102649.34;5043723;28;20133;-41
2024/01/30 01:27:43;;;;;;;6.07;4.28;;;;;;;16.23;46.76;102643.03;5038098;28;20061;-40
2024/01/30 01:30:11;;;;;;;5.95;3.88;;;;;;;16.21;46.93;102640.47;5037162;28;20057;-41
2024/01/30 01:32:38;;;;;;;6.38;4.32;;;;;;;16.20;47.02;102640.53;5043412;28;20060;-41
2024/01/30 01:35:07;;;;;;;5.28;3.78;;;;;;;16.20;47.71;102640.53;5041745;28;20336;-41
2024/01/30 01:37:34;;;;;;;6.53;3.88;;;;;;;16.20;47.81;102630.72;5042601;28;20049;-41
2024/01/30 01:40:01;;;;;;;5.47;3.60;;;;;;;16.19;46.91;102630.81;5042490;28;20399;-41
2024/01/30 01:42:27;;;;;;;5.50;4.00;;;;;;;16.18;46.80;102619.25;5043295;28;20060;-41
2024/01/30 01:44:54;;;;;;;4.78;3.60;;;;;;;16.17;47.82;102627.38;5044850;28;20048;-40
2024/01/30 01:47:21;;;;;;;5.13;3.47;;;;;;;16.16;47.67;102623.84;5043779;28;20051;-41
2024/01/30 01:49:47;;;;;;;6.90;4.60;;;;;;;16.16;47.04;102636.34;5044836;28;20048;-40
2024/01/30 01:52:15;;;;;;;5.15;3.95;;;;;;;16.15;47.54;102618.59;5039103;28;20056;-41
2024/01/30 01:54:42;;;;;;;4.13;3.67;;;;;;;16.14;47.21;102628.44;5041543;28;20131;-40
2024/01/30 01:57:09;;;;;;;6.53;4.40;;;;;;;16.13;47.71;102628.53;5038953;28;20056;-40
2024/01/30 01:59:36;;;;;;;5.97;3.78;;;;;;;16.10;47.17;102629.59;5040652;28;20100;-40
2024/01/30 02:02:04;;;;;;;4.10;3.58;;;;;;;16.07;47.31;102619.06;5039982;28;20048;-40
2024/01/30 02:04:31;;;;;;;5.00;3.97;;;;;;;16.05;47.99;102623.69;5041128;28;20049;-40
2024/01/30 02:06:58;;;;;;;5.93;3.63;;;;;;;16.00;48.36;102618.63;5041480;28;20096;-40
2024/01/30 02:09:25;;;;;;;6.40;3.70;;;;;;;15.96;47.54;102627.78;5040598;28;20064;-40
2024/01/30 02:11:52;;;;;;;4.65;3.50;;;;;;;15.92;48.38;102625.38;5040947;28;20057;-40
2024/01/30 02:14:18;;;;;;;7.65;4.00;;;;;;;15.88;47.56;102630.09;5042053;28;20103;-41
2024/01/30 02:16:45;;;;;;;5.25;4.53;;;;;;;15.86;48.43;102629.31;5038372;28;20107;-40
2024/01/30 02:19:12;;;;;;;5.38;4.03;;;;;;;15.86;47.79;102639.16;5040438;28;20420;-42
2024/01/30 02:21:39;;;;;;;4.80;3.40;;;;;;;15.88;48.66;102637.22;5041133;28;20428;-40
2024/01/30 02:24:05;;;;;;;5.90;3.70;;;;;;;15.90;47.52;102638.84;5042856;28;20048;-40
2024/01/30 02:26:32;;;;;;;5.22;3.63;;;;;;;15.97;48.38;102626.84;5020386;28;20053;-41
2024/01/30 02:28:59;;;;;;;5.50;3.60;;;;;;;16.06;47.73;102613.84;5038650;28;20053;-40
2024/01/30 02:31:26;;;;;;;4.97;3.60;;;;;;;16.12;47.43;102614.31;5042545;28;20073;-40
2024/01/30 02:33:53;;;;;;;5.13;3.88;;;;;;;16.18;46.97;102591.66;5036686;28;20056;-40
2024/01/30 02:36:19;;;;;;;7.25;4.00;;;;;;;16.22;47.71;102611.91;5038370;28;20337;-41
2024/01/30 02:38:46;;;;;;;5.18;3.70;;;;;;;16.25;47.02;102601.00;5040119;28;20049;-41
2024/01/30 02:41:13;;;;;;;4.53;3.70;;;;;;;16.28;47.14;102603.47;5038599;28;20091;-40
2024/01/30 02:43:40;;;;;;;5.82;3.70;;;;;;;16.30;47.01;102601.56;5039091;28;20049;-41
2024/01/30 02:46:06;;;;;;;4.68;3.15;;;;;;;16.33;46.80;102600.50;5039399;28;20106;-42
2024/01/30 02:48:33;;;;;;;5.25;3.80;;;;;;;16.34;47.91;102605.75;5040255;28;20099;-41
2024/01/30 02:51:00;;;;;;;4.88;3.50;;;;;;;16.36;47.45;102605.63;5039774;28;20099;-40
2024/01/30 02:53:26;;;;;;;5.50;3.60;;;;;;;16.35;46.78;102604.78;5038500;28;20141;-41
2024/01/30 02:55:53;;;;;;;5.07;3.78;;;;;;;16.34;46.81;102608.44;5037960;28;20042;-41
2024/01/30 02:58:20;;;;;;;5.15;3.70;;;;;;;16.35;47.69;102610.13;5035419;28;20045;-40
2024/01/30 03:00:46;;;;;;;5.72;3.92;;;;;;;16.34;47.56;102602.22;5038921;28;20057;-41
2024/01/30 03:03:13;;;;;;;5.97;3.85;;;;;;;16.33;47.79;102595.16;5037824;28;20048;-41
2024/01/30 03:05:40;;;;;;;4.60;3.78;;;;;;;16.33;47.29;102595.16;5038885;28;20045;-40
2024/01/30 03:08:06;;;;;;;6.00;3.83;;;;;;;16.32;46.87;102582.72;5034916;28;20049;-41
2024/01/30 03:10:33;;;;;;;5.45;3.80;;;;;;;16.31;46.69;102584.53;5035573;28;20080;-41
2024/01/30 03:13:00;;;;;;;5.18;3.75;;;;;;;16.31;47.22;102586.34;5038336;28;20046;-41
2024/01/30 03:15:27;;;;;;;6.53;3.83;;;;;;;16.30;47.31;102585.50;5036948;28;20175;-41
2024/01/30 03:17:54;;;;;;;5.05;3.83;;;;;;;16.28;47.77;102582.94;5037169;28;20049;-41
2024/01/30 03:20:21;;;;;;;4.55;3.55;;;;;;;16.28;47.47;102577.59;5042152;28;20056;-40
2024/01/30 03:22:47;;;;;;;4.18;3.60;;;;;;;16.27;46.59;102575.84;5042309;28;20053;-41
2024/01/30 03:25:14;;;;;;;4.82;3.85;;;;;;;16.26;47.13;102571.47;5040609;28;20136;-41
2024/01/30 03:27:40;;;;;;;4.57;3.63;;;;;;;16.27;47.84;102573.16;5039837;28;20259;-41
2024/01/30 03:30:07;;;;;;;5.10;3.50;;;;;;;16.26;46.94;102559.91;5043728;28;20128;-41
2024/01/30 03:32:34;;;;;;;5.15;3.40;;;;;;;16.26;47.09;102549.19;5041393;28;20110;-40
2024/01/30 03:35:01;;;;;;;6.10;3.75;;;;;;;16.26;47.65;102549.19;5043742;28;20133;-40
2024/01/30 03:37:28;;;;;;;5.88;3.58;;;;;;;16.26;47.50;102551.88;5043525;28;20053;-41
2024/01/30 03:39:55;;;;;;;4.80;3.53;;;;;;;16.26;47.19;102554.56;5040916;28;20057;-41
2024/01/30 03:42:22;;;;;;;4.85;3.50;;;;;;;16.25;47.59;102563.53;5041948;28;20049;-41
2024/01/30 03:44:51;;;;;;;5.43;3.83;;;;;;;16.26;47.08;102570.59;5037162;28;20444;-41
2024/01/30 03:47:18;;;;;;;5.95;4.25;;;;;;;16.27;46.99;102572.31;5046148;28;20037;-41
2024/01/30 03:49:45;;;;;;;5.30;3.70;;;;;;;16.27;47.92;102572.31;5040903;28;20432;-40
2024/01/30 03:52:12;;;;;;;4.53;3.45;;;;;;;16.26;47.38;102563.44;5041820;28;20058;-41
2024/01/30 03:54:38;;;;;;;6.70;3.90;;;;;;;16.26;47.66;102563.44;5047494;28;20072;-41
2024/01/30 03:57:05;;;;;;;4.88;3.63;;;;;;;16.26;47.78;102570.59;5048527;28;20048;-40
2024/01/30 03:59:32;;;;;;;5.00;3.78;;;;;;;16.25;47.52;102569.75;5048830;28;20099;-41
2024/01/30 04:02:00;;;;;;;4.65;3.63;;;;;;;16.25;46.84;102567.06;5046425;28;20094;-40
2024/01/30 04:04:27;;;;;;;6.53;3.60;;;;;;;16.25;47.15;102571.56;5041575;28;20053;-40
2024/01/30 04:06:54;;;;;;;5.18;3.63;;;;;;;16.24;46.65;102564.47;5046359;28;20052;-40
2024/01/30 04:09:20;;;;;;;4.18;3.28;;;;;;;16.24;47.06;102567.16;5049139;28;20095;-40
2024/01/30 04:11:47;;;;;;;7.80;3.92;;;;;;;16.23;47.42;102565.44;5043117;28;20062;-41
2024/01/30 04:14:13;;;;;;;5.03;3.72;;;;;;;16.22;46.96;102572.63;5044808;28;20041;-40
2024/01/30 04:16:40;;;;;;;6.72;4.10;;;;;;;16.23;47.64;102562.78;5049529;28;20048;-40
2024/01/30 04:19:07;;;;;;;4.70;3.90;;;;;;;16.20;46.75;102563.84;5042720;28;20091;-40
2024/01/30 04:21:33;;;;;;;5.85;3.53;;;;;;;16.21;46.88;102556.69;5048909;28;20061;-41
2024/01/30 04:24:00;;;;;;;4.60;3.55;;;;;;;16.20;47.12;102547.78;5048575;28;20053;-40
2024/01/30 04:26:27;;;;;;;5.75;3.42;;;;;;;16.21;47.56;102548.66;5047667;28;20048;-40
2024/01/30 04:28:53;;;;;;;4.97;3.45;;;;;;;16.24;47.13;102538.63;5041934;28;20084;-41
2024/01/30 04:31:20;;;;;;;4.60;3.60;;;;;;;16.29;47.39;102541.84;5046680;28;20056;-40
2024/01/30 04:33:47;;;;;;;5.57;3.40;;;;;;;16.35;47.18;102532.53;5039626;28;20513;-40
2024/01/30 04:36:14;;;;;;;6.53;3.70;;;;;;;16.40;47.31;102540.25;5041697;28;20044;-41
2024/01/30 04:38:40;;;;;;;5.65;3.80;;;;;;;16.43;47.51;102532.88;5045142;28;20053;-41
2024/01/30 04:41:07;;;;;;;5.13;3.72;;;;;;;16.46;46.64;102539.88;5043865;28;20394;-41
2024/01/30 04:43:34;;;;;;;4.68;3.60;;;;;;;16.48;47.64;102543.28;5043391;28;20081;-41
2024/01/30 04:46:00;;;;;;;5.10;3.78;;;;;;;16.50;47.16;102544.06;5042845;28;20369;-41
2024/01/30 04:48:27;;;;;;;6.03;3.63;;;;;;;16.50;47.41;102534.19;5045656;28;20056;-41
2024/01/30 04:50:55;;;;;;;3.40;3.10;;;;;;;16.51;46.40;102533.22;5041347;28;20056;-41
2024/01/30 04:53:22;;;;;;;4.90;3.65;;;;;;;16.52;47.30;102534.09;5045813;28;20057;-41
2024/01/30 04:55:49;;;;;;;3.85;3.20;;;;;;;16.52;47.36;102537.66;5042668;28;20136;-40
2024/01/30 04:58:16;;;;;;;4.68;3.50;;;;;;;16.51;47.30;102543.09;5041912;28;20053;-41
2024/01/30 05:00:42;;;;;;;4.97;3.70;;;;;;;16.50;46.62;102531.53;5041233;28;20081;-41
2024/01/30 05:03:09;;;;;;;4.25;3.65;;;;;;;16.49;46.38;102527.13;5042135;28;20045;-40
2024/01/30 05:05:36;;;;;;;5.07;3.92;;;;;;;16.48;46.96;102528.09;5042272;28;20091;-40
2024/01/30 05:08:03;;;;;;;4.90;3.60;;;;;;;16.46;47.47;102530.00;5043056;28;20053;-40
2024/01/30 05:10:29;;;;;;;6.20;4.03;;;;;;;16.45;46.86;102532.81;5040868;28;20127;-40
2024/01/30 05:12:56;;;;;;;5.18;3.33;;;;;;;16.44;47.29;102528.38;5042213;28;20503;-41
2024/01/30 05:15:23;;;;;;;4.60;3.55;;;;;;;16.43;46.77;102521.31;5042046;28;20056;-41
2024/01/30 05:17:49;;;;;;;6.70;3.90;;;;;;;16.41;47.23;102529.47;5042590;28;20071;-40
2024/01/30 05:20:16;;;;;;;3.95;3.25;;;;;;;16.41;47.31;102529.47;5044590;28;20495;-40
2024/01/30 05:22:44;;;;;;;6.18;3.58;;;;;;;16.39;47.07;102520.66;5020752;28;20064;-40
2024/01/30 05:25:14;;;;;;;4.88;3.60;;;;;;;16.38;47.01;102523.47;5042401;28;20068;-40
2024/01/30 05:27:41;;;;;;;5.68;3.58;;;;;;;16.38;46.95;102531.47;5039306;28;20455;-41
2024/01/30 05:30:09;;;;;;;5.38;3.80;;;;;;;16.36;47.25;102531.59;5038043;28;20132;-41
2024/01/30 05:32:35;;;;;;;5.88;3.70;;;;;;;16.37;47.71;102535.13;5043364;28;20110;-40
2024/01/30 05:35:02;;;;;;;4.47;3.70;;;;;;;16.35;47.28;102532.53;5038635;28;20052;-40
2024/01/30 05:37:29;;;;;;;5.10;3.50;;;;;;;16.34;46.99;102529.97;5044584;28;20451;-39
2024/01/30 05:39:56;;;;;;;5.63;4.03;;;;;;;16.34;47.43;102538.00;5037816;28;20053;-40
2024/01/30 05:42:23;;;;;;;4.75;3.65;;;;;;;16.32;47.67;102523.84;5039832;28;20388;-40
2024/01/30 05:44:49;;;;;;;6.80;3.85;;;;;;;16.31;46.71;102528.34;5044514;28;20052;-41
2024/01/30 05:47:16;;;;;;;4.68;3.58;;;;;;;16.29;47.15;102538.31;5038470;28;20421;-40
2024/01/30 05:49:42;;;;;;;5.15;3.67;;;;;;;16.28;46.87;102534.78;5043696;28;20060;-40
2024/01/30 05:52:09;;;;;;;5.90;3.95;;;;;;;16.27;47.30;102538.38;5042737;28;20100;-40
2024/01/30 05:54:36;;;;;;;4.35;2.95;;;;;;;16.26;47.54;102531.31;5041450;28;20456;-40
2024/01/30 05:57:03;;;;;;;4.75;3.70;;;;;;;16.25;47.23;102529.63;5045421;28;20087;-40
2024/01/30 05:59:29;;;;;;;4.47;3.38;;;;;;;16.25;47.43;102532.28;5034742;28;20712;-40
2024/01/30 06:01:56;;;;;;;4.22;3.28;;;;;;;16.24;47.03;102535.94;5049494;28;20163;-40
2024/01/30 06:04:23;;;;;;;4.05;3.58;;;;;;;16.23;47.95;102542.22;5035983;28;20053;-40
2024/01/30 06:06:50;;;;;;;4.95;3.70;;;;;;;16.23;47.58;102536.88;5037050;28;20091;-40
2024/01/30 06:09:17;;;;;;;5.35;3.53;;;;;;;16.21;47.08;102536.13;5041715;28;20053;-40
2024/01/30 06:11:43;;;;;;;4.55;3.50;;;;;;;16.21;47.57;102538.81;5042292;28;20110;-40
2024/01/30 06:14:10;;;;;;;6.00;3.80;;;;;;;16.20;47.59;102542.44;5038862;28;20084;-40
2024/01/30 06:16:37;;;;;;;4.10;3.42;;;;;;;16.21;47.73;102543.31;5042062;28;20048;-39
2024/01/30 06:19:03;;;;;;;5.25;3.55;;;;;;;16.18;47.47;102532.78;5040203;28;20053;-41
2024/01/30 06:21:31;;;;;;;4.53;3.35;;;;;;;16.21;46.93;102536.13;5037917;28;20048;-40
2024/01/30 06:23:58;;;;;;;4.55;3.45;;;;;;;16.26;47.77;102539.34;5036202;28;20138;-40
2024/01/30 06:26:24;;;;;;;3.42;2.83;;;;;;;16.32;47.54;102543.44;5043112;28;20080;-40
2024/01/30 06:28:51;;;;;;;5.35;3.28;;;;;;;16.38;46.95;102547.53;5036228;28;20400;-41
2024/01/30 06:31:18;;;;;;;4.50;3.28;;;;;;;16.44;47.14;102555.16;5038908;28;20057;-41
2024/01/30 06:33:47;;;;;;;3.85;2.90;;;;;;;16.47;46.90;102549.59;5026192;28;20057;-40
2024/01/30 06:36:14;;;;;;;4.93;3.72;;;;;;;16.50;47.63;102552.06;5039326;28;20051;-40
2024/01/30 06:38:41;;;;;;;6.15;3.53;;;;;;;16.54;47.00;102556.28;5040050;28;20127;-40
2024/01/30 06:41:07;;;;;;;4.30;2.90;;;;;;;16.56;47.25;102548.13;5037467;28;20069;-40
2024/01/30 06:43:34;;;;;;;3.35;2.67;;;;;;;16.57;46.38;102540.00;5039138;28;20392;-40
2024/01/30 06:46:01;;;;;;;5.25;3.25;;;;;;;16.57;47.07;102550.72;5040940;28;20399;-42
2024/01/30 06:48:28;;;;;;;5.95;2.85;;;;;;;16.57;46.85;102550.72;5018510;28;20057;-41
2024/01/30 06:50:54;;;;;;;5.22;3.38;;;;;;;16.57;46.78;102552.53;5040719;28;20053;-42
2024/01/30 06:53:21;;;;;;;4.63;2.85;;;;;;;16.58;47.40;102551.56;5036409;28;20118;-41
2024/01/30 06:55:47;;;;;;;3.70;3.13;;;;;;;16.56;46.74;102546.31;5036536;28;20098;-41
2024/01/30 06:58:14;;;;;;;3.88;3.25;;;;;;;16.56;46.63;102543.63;5035005;28;20124;-42
2024/01/30 07:00:41;;;;;;;4.07;3.10;;;;;;;16.54;47.55;102554.44;5039192;28;20060;-41
2024/01/30 07:03:08;;;;;;;5.07;3.40;;;;;;;16.54;46.92;102553.59;5038574;28;20189;-41
2024/01/30 07:05:35;;;;;;;6.22;3.30;;;;;;;16.52;47.46;102552.81;5037065;28;20111;-41
2024/01/30 07:08:01;;;;;;;4.97;3.30;;;;;;;16.53;47.36;102551.88;5036260;28;20049;-41
2024/01/30 07:10:28;;;;;;;4.63;3.40;;;;;;;16.50;46.98;102549.41;5035582;28;20231;-41
2024/01/30 07:12:55;;;;;;;7.40;3.65;;;;;;;16.50;47.34;102549.41;5035713;28;20375;-41
2024/01/30 07:15:22;;;;;;;3.97;2.85;;;;;;;16.49;47.33;102556.56;5039653;28;20059;-41
2024/01/30 07:17:48;;;;;;;7.05;3.63;;;;;;;16.47;47.92;102550.47;5037587;28;20073;-42
2024/01/30 07:20:15;;;;;;;5.40;3.10;;;;;;;16.47;47.73;102560.31;5038411;28;20049;-42
2024/01/30 07:22:44;;;;;;;4.43;3.20;;;;;;;16.46;46.77;102566.63;5035955;28;20050;-41
2024/01/30 07:25:11;;;;;;;4.93;3.30;;;;;;;16.44;47.10;102563.19;5035283;28;20691;-41
2024/01/30 07:27:37;;;;;;;3.92;3.03;;;;;;;16.43;47.63;102565.00;5039713;28;20053;-41
2024/01/30 07:30:05;;;;;;;4.88;3.50;;;;;;;16.43;47.22;102564.16;5034320;28;20058;-41
2024/01/30 07:32:31;;;;;;;4.45;3.40;;;;;;;16.40;47.80;102567.91;5036553;28;20103;-41
2024/01/30 07:34:58;;;;;;;4.20;3.28;;;;;;;16.42;47.40;102575.81;5036863;28;20422;-42
2024/01/30 07:37:34;;;;;;;5.70;3.50;;;;;;;16.40;47.63;102570.56;5037915;28;20045;-41
2024/01/30 07:40:02;;;;;;;6.20;3.63;;;;;;;16.38;47.23;102577.84;5036095;28;20401;-41
2024/01/30 07:42:29;;;;;;;4.82;3.30;;;;;;;16.37;47.94;102581.47;5033513;28;20053;-41
2024/01/30 07:44:56;;;;;;;3.72;2.95;;;;;;;16.37;47.78;102578.81;5038817;28;20594;-41
2024/01/30 07:47:22;;;;;;;4.40;3.60;;;;;;;16.36;47.99;102578.88;5038746;28;20045;-41
2024/01/30 07:49:49;;;;;;;7.38;3.10;;;;;;;16.34;48.21;102588.84;5034930;28;20372;-41
2024/01/30 07:52:16;;;;;;;4.40;3.22;;;;;;;16.34;47.33;102588.84;5040107;28;20061;-42
2024/01/30 07:54:50;;;;;;;5.80;3.28;;;;;;;16.32;47.36;102582.72;5034495;28;20136;-40
2024/01/30 07:57:17;;;;;;;4.45;3.20;;;;;;;16.32;47.52;102596.09;5038875;28;20044;-41
2024/01/30 07:59:45;;;;;;;5.80;3.80;;;;;;;16.32;47.87;102594.28;5041694;28;20060;-41
2024/01/30 08:02:13;;;;;;;5.15;3.53;;;;;;;16.31;48.26;102584.53;5038688;28;20049;-42
2024/01/30 08:04:39;;;;;;;4.75;3.47;;;;;;;16.29;47.10;102587.31;5038102;28;20057;-42
2024/01/30 08:07:06;;;;;;;4.85;3.00;;;;;;;16.28;48.42;102587.41;5040122;28;20052;-41
2024/01/30 08:09:33;;;;;;;3.35;2.63;;;;;;;16.28;47.43;102584.72;5043219;28;20180;-42
2024/01/30 08:12:00;;;;;;;4.38;3.58;;;;;;;16.27;48.21;102594.56;5042629;28;20131;-41
2024/01/30 08:14:26;;;;;;;6.22;3.33;;;;;;;16.26;48.34;102606.25;5038946;28;20057;-42
2024/01/30 08:16:53;;;;;;;4.47;2.97;;;;;;;16.25;48.09;102596.50;5038924;28;20340;-41
2024/01/30 08:19:20;;;;;;;4.68;3.50;;;;;;;16.25;48.38;102592.97;5041550;28;20152;-41
2024/01/30 08:21:46;;;;;;;6.70;3.58;;;;;;;16.25;48.45;102592.97;5041887;28;20049;-41
2024/01/30 08:24:13;;;;;;;5.75;3.35;;;;;;;16.24;48.10;102596.59;5042199;28;20061;-41
2024/01/30 08:26:40;;;;;;;4.72;3.45;;;;;;;16.22;47.52;102599.38;5036787;28;20053;-41
2024/01/30 08:29:06;;;;;;;5.50;3.20;;;;;;;16.23;47.52;102603.75;5039599;28;20391;-41
2024/01/30 08:31:33;;;;;;;4.07;3.47;;;;;;;16.21;48.01;102603.00;5038204;28;20103;-41
2024/01/30 08:34:00;;;;;;;5.22;3.13;;;;;;;16.23;47.39;102605.56;5038821;28;20058;-40
2024/01/30 08:36:27;;;;;;;4.65;3.13;;;;;;;16.21;48.28;102600.34;5041189;28;20533;-41
2024/01/30 08:38:54;;;;;;;6.65;3.35;;;;;;;16.21;48.30;102604.84;5042285;28;20103;-41
2024/01/30 08:41:27;;;;;;;5.20;3.47;;;;;;;16.20;48.14;102603.97;5039377;28;20575;-41
2024/01/30 08:43:54;;;;;;;4.22;3.53;;;;;;;16.20;47.65;102605.75;5042609;28;20059;-42
2024/01/30 08:46:20;;;;;;;4.00;3.00;;;;;;;16.18;48.37;102611.22;5041675;28;20065;-41
2024/01/30 08:48:47;;;;;;;3.80;3.25;;;;;;;16.19;47.55;102612.94;5044535;28;20301;-41
2024/01/30 08:51:15;;;;;;;5.28;3.63;;;;;;;16.18;48.70;102613.91;5040683;28;20049;-41
2024/01/30 08:53:42;;;;;;;4.88;3.63;;;;;;;16.16;47.80;102609.59;5043308;28;20054;-41
2024/01/30 08:56:09;;;;;;;5.68;3.50;;;;;;;16.16;47.67;102615.84;5040702;28;20075;-41
2024/01/30 08:58:36;;;;;;;7.43;3.65;;;;;;;16.15;48.52;102615.91;5039394;28;20049;-41
2024/01/30 09:01:05;;;;;;;5.22;3.75;;;;;;;16.13;48.13;102620.53;5042266;28;20131;-41
2024/01/30 09:03:32;;;;;;;6.47;3.88;;;;;;;16.12;48.84;102621.44;5040864;28;20056;-41
2024/01/30 09:05:58;;;;;;;5.50;3.58;;;;;;;16.10;48.83;102618.03;5040419;28;20053;-41
2024/01/30 09:08:25;;;;;;;6.72;3.65;;;;;;;16.06;48.99;102619.19;5040342;28;20041;-41
2024/01/30 09:10:52;;;;;;;4.57;3.70;;;;;;;16.03;48.50;102622.91;5037035;28;20081;-40
2024/01/30 09:13:19;;;;;;;4.85;3.53;;;;;;;16.03;48.21;102631.78;5039289;28;20056;-41
2024/01/30 09:15:46;;;;;;;5.75;3.03;;;;;;;16.06;48.42;102619.19;5039661;28;20415;-40
2024/01/30 09:18:12;;;;;;;6.28;3.65;;;;;;;16.11;48.22;102631.28;5038699;28;20073;-41
2024/01/30 09:20:39;;;;;;;5.90;3.30;;;;;;;16.18;48.12;102631.78;5039738;28;20088;-40
2024/01/30 09:23:05;;;;;;;6.40;3.40;;;;;;;16.25;48.26;102631.28;5039608;28;20080;-41
2024/01/30 09:25:32;;;;;;;6.15;3.70;;;;;;;16.32;48.58;102630.88;5039580;28;20182;-40
2024/01/30 09:27:59;;;;;;;4.50;3.15;;;;;;;16.36;48.07;102627.94;5039459;28;20415;-41
2024/01/30 09:30:26;;;;;;;9.70;3.38;;;;;;;16.40;48.07;102636.59;5038099;28;20068;-41
2024/01/30 09:32:52;;;;;;;4.78;3.20;;;;;;;16.44;47.74;102630.97;5039609;28;20057;-41
2024/01/30 09:35:19;;;;;;;5.70;3.38;;;;;;;16.47;47.73;102630.75;5040873;28;20051;-40
2024/01/30 09:37:45;;;;;;;5.20;3.20;;;;;;;16.50;47.67;102640.41;5038038;28;20076;-40
2024/01/30 09:40:12;;;;;;;4.72;3.15;;;;;;;16.53;48.18;102643.75;5040129;28;20085;-40
2024/01/30 09:42:42;;;;;;;4.78;3.05;;;;;;;16.56;47.21;102642.66;5037674;28;20055;-39
2024/01/30 09:45:13;;;;;;;4.68;3.28;;;;;;;16.58;48.02;102642.59;5040905;28;20049;-38
2024/01/30 09:47:45;;;;;;;6.38;3.35;;;;;;;16.59;48.27;102646.97;5039364;28;20045;-39
2024/01/30 09:50:14;;;;;;;5.75;3.08;;;;;;;16.61;47.84;102662.00;5038287;28;20049;-40
2024/01/30 09:52:45;;;;;;;5.30;3.10;;;;;;;16.62;48.42;102676.22;5039741;28;20073;-40
2024/01/30 09:55:12;;;;;;;4.85;3.15;;;;;;;16.63;47.47;102656.53;5038488;28;20053;-40
2024/01/30 09:57:39;;;;;;;6.15;3.00;;;;;;;16.63;47.46;102654.69;5038648;28;20072;-39
2024/01/30 10:00:09;;;;;;;4.65;3.03;;;;;;;16.63;47.64;102662.72;5038438;28;20045;-39
2024/01/30 10:02:36;;;;;;;4.85;2.90;;;;;;;16.65;47.64;102657.28;5039980;28;20048;-41
2024/01/30 10:05:03;;;;;;;5.38;3.03;;;;;;;16.66;47.50;102662.53;5038243;28;20399;-41
2024/01/30 10:07:30;;;;;;;4.90;2.92;;;;;;;16.67;47.56;102669.59;5038475;28;20234;-39
2024/01/30 10:09:57;;;;;;;4.57;2.67;;;;;;;16.68;47.75;102670.47;5040917;28;20055;-39
2024/01/30 10:12:29;;;;;;;4.70;3.45;;;;;;;16.69;47.85;102681.09;5036960;28;20424;-39
2024/01/30 10:14:56;;;;;;;3.35;2.88;;;;;;;16.68;47.83;102663.31;5040615;28;20375;-40
2024/01/30 10:17:25;;;;;;;4.13;2.97;;;;;;;16.68;47.52;102654.41;5042315;28;20055;-40
2024/01/30 10:19:59;;;;;;;4.30;2.65;;;;;;;16.68;47.31;102655.28;5037429;28;20136;-39
2024/01/30 10:22:28;;;;;;;4.28;3.25;;;;;;;16.68;47.72;102668.66;5035808;28;20136;-40
2024/01/30 10:24:55;;;;;;;6.43;2.80;;;;;;;16.67;47.87;102672.28;5036804;28;20399;-39
2024/01/30 10:27:29;;;;;;;4.40;3.13;;;;;;;16.67;47.71;102664.25;5018366;28;20048;-40
2024/01/30 10:29:56;;;;;;;3.40;2.65;;;;;;;16.67;47.71;102679.47;5033429;28;20076;-39
2024/01/30 10:32:23;;;;;;;3.75;2.90;;;;;;;16.67;47.47;102676.78;5037041;28;20053;-40
2024/01/30 10:34:50;;;;;;;4.35;2.45;;;;;;;16.67;48.32;102677.63;5040151;28;20045;-40
2024/01/30 10:37:19;;;;;;;5.13;2.97;;;;;;;16.67;47.81;102683.00;5036494;28;20041;-40
2024/01/30 10:39:45;;;;;;;3.92;2.67;;;;;;;16.68;47.90;102676.69;5039391;28;20130;-40
2024/01/30 10:42:14;;;;;;;3.08;2.50;;;;;;;16.68;47.56;102679.38;5037348;28;20049;-40
2024/01/30 10:44:59;;;;;;;3.10;2.60;;;;;;;16.67;47.80;102680.31;5036545;28;20064;-40
2024/01/30 10:47:28;;;;;;;3.13;2.50;;;;;;;16.71;47.53;102694.38;5039293;28;20090;-39
2024/01/30 10:49:56;;;;;;;4.63;2.55;;;;;;;16.69;47.91;102689.13;5038088;28;20053;-40
2024/01/30 10:52:27;;;;;;;4.40;3.00;;;;;;;16.70;48.25;102698.88;5036416;28;20135;-40
2024/01/30 10:54:55;;;;;;;3.80;2.58;;;;;;;16.70;48.21;102706.91;5039726;28;20444;-41
2024/01/30 10:57:24;;;;;;;4.55;2.88;;;;;;;16.69;47.60;102705.19;5040496;28;20072;-40
2024/01/30 10:59:56;;;;;;;3.88;2.58;;;;;;;16.69;47.34;102707.00;5038376;28;20045;-40
2024/01/30 11:02:24;;;;;;;4.22;2.70;;;;;;;16.67;47.36;102712.44;5041632;28;20122;-39
2024/01/30 11:04:56;;;;;;;4.53;2.15;;;;;;;16.66;47.79;102705.38;5041054;28;20048;-38
2024/01/30 11:07:26;;;;;;;3.25;2.63;;;;;;;16.66;47.50;102715.22;5040926;28;20045;-39
2024/01/30 11:10:06;;;;;;;3.47;2.53;;;;;;;16.62;47.92;102719.91;5038159;28;20111;-39
2024/01/30 11:12:40;;;;;;;3.42;2.83;;;;;;;16.60;47.39;102713.78;5036569;28;20046;-39
2024/01/30 11:15:08;;;;;;;4.32;2.20;;;;;;;16.58;47.38;102715.72;5041407;28;20380;-40
2024/01/30 11:17:47;;;;;;;3.78;2.28;;;;;;;16.56;47.66;102716.75;5041038;28;20123;-40
2024/01/30 11:20:25;;;;;;;4.38;2.40;;;;;;;16.55;47.39;102718.59;5043536;28;20044;-40
2024/01/30 11:22:55;;;;;;;3.22;2.58;;;;;;;16.54;47.35;102722.22;5038104;28;20045;-41
2024/01/30 11:25:23;;;;;;;4.10;2.35;;;;;;;16.52;47.52;102717.00;5041147;28;20057;-40